VPCOH LIRA-EDDL
Flight info
| Callsign | VPCOH |
|---|---|
| Flight time | 1h 53m |
| Altitude | 38000 |
| Route | SOVAN DCT AMTEL DCT BOA DCT UNIMI DCT KPT DCT TEDGO/N0454F370 DCT HAREM DCT LOHRE/N0456F380 Z850 ARPEG/N0406F240 Z850 ADEMI T854 DOMUX DOMUX1A |
| Aircraft | B738/M-SDE2E3FGHIRWXY/LB1 |
Departure
| Time | 2026-05-08 13:22 |
|---|---|
| Airport | Ciampino–G. B. Pastine International Airport (LIRA) |
Arrival
| Time | 2026-05-08 15:15 |
|---|---|
| Airport | Düsseldorf Airport (EDDL) |
| Time | Latitude | Longitude | Altitude | Speed | Heading |
|---|---|---|---|---|---|
| 2026-05-08 12:49 | 41.79320 | 12.59603 | 405 ft | 0 kts | 52° |
| 2026-05-08 13:05 | 41.79316 | 12.59596 | 404 ft | 2 kts | 52° |
| 2026-05-08 13:06 | 41.79309 | 12.59584 | 402 ft | 2 kts | 52° |
| 2026-05-08 13:06 | 41.79302 | 12.59572 | 405 ft | 2 kts | 52° |
| 2026-05-08 13:06 | 41.79296 | 12.59560 | 405 ft | 1 kts | 77° |
| 2026-05-08 13:06 | 41.79295 | 12.59547 | 405 ft | 1 kts | 104° |
| 2026-05-08 13:07 | 41.79299 | 12.59534 | 405 ft | 1 kts | 138° |
| 2026-05-08 13:07 | 41.79301 | 12.59532 | 405 ft | 0 kts | 142° |
| 2026-05-08 13:12 | 41.79299 | 12.59533 | 405 ft | 2 kts | 142° |
| 2026-05-08 13:12 | 41.79273 | 12.59560 | 405 ft | 7 kts | 142° |
| 2026-05-08 13:13 | 41.79238 | 12.59602 | 405 ft | 7 kts | 124° |
| 2026-05-08 13:13 | 41.79245 | 12.59667 | 405 ft | 9 kts | 63° |
| 2026-05-08 13:13 | 41.79295 | 12.59720 | 406 ft | 11 kts | 351° |
| 2026-05-08 13:13 | 41.79361 | 12.59678 | 406 ft | 10 kts | 332° |
| 2026-05-08 13:14 | 41.79424 | 12.59634 | 406 ft | 10 kts | 333° |
| 2026-05-08 13:14 | 41.79490 | 12.59590 | 406 ft | 11 kts | 333° |
| 2026-05-08 13:14 | 41.79556 | 12.59543 | 406 ft | 11 kts | 332° |
| 2026-05-08 13:14 | 41.79622 | 12.59498 | 406 ft | 10 kts | 333° |
| 2026-05-08 13:15 | 41.79686 | 12.59454 | 406 ft | 10 kts | 333° |
| 2026-05-08 13:15 | 41.79748 | 12.59411 | 406 ft | 10 kts | 333° |
| 2026-05-08 13:15 | 41.79808 | 12.59370 | 406 ft | 10 kts | 333° |
| 2026-05-08 13:15 | 41.79867 | 12.59329 | 406 ft | 9 kts | 333° |
| 2026-05-08 13:16 | 41.79924 | 12.59290 | 406 ft | 9 kts | 332° |
| 2026-05-08 13:16 | 41.79983 | 12.59249 | 406 ft | 10 kts | 333° |
| 2026-05-08 13:16 | 41.80047 | 12.59205 | 406 ft | 10 kts | 333° |
| 2026-05-08 13:16 | 41.80110 | 12.59162 | 406 ft | 10 kts | 333° |
| 2026-05-08 13:17 | 41.80171 | 12.59119 | 406 ft | 10 kts | 332° |
| 2026-05-08 13:17 | 41.80230 | 12.59078 | 406 ft | 10 kts | 333° |
| 2026-05-08 13:17 | 41.80288 | 12.59038 | 406 ft | 9 kts | 332° |
| 2026-05-08 13:17 | 41.80345 | 12.58999 | 403 ft | 9 kts | 333° |
| 2026-05-08 13:18 | 41.80400 | 12.58961 | 405 ft | 9 kts | 333° |
| 2026-05-08 13:18 | 41.80453 | 12.58924 | 406 ft | 9 kts | 332° |
| 2026-05-08 13:18 | 41.80505 | 12.58889 | 406 ft | 8 kts | 333° |
| 2026-05-08 13:18 | 41.80555 | 12.58854 | 406 ft | 8 kts | 332° |
| 2026-05-08 13:19 | 41.80604 | 12.58820 | 403 ft | 8 kts | 333° |
| 2026-05-08 13:19 | 41.80651 | 12.58788 | 404 ft | 8 kts | 333° |
| 2026-05-08 13:19 | 41.80697 | 12.58758 | 406 ft | 7 kts | 340° |
| 2026-05-08 13:19 | 41.80733 | 12.58777 | 406 ft | 1 kts | 56° |
| 2026-05-08 13:20 | 41.80734 | 12.58780 | 403 ft | 0 kts | 59° |
| 2026-05-08 13:21 | 41.80753 | 12.58825 | 412 ft | 8 kts | 61° |
| 2026-05-08 13:21 | 41.80777 | 12.58885 | 416 ft | 7 kts | 66° |
| 2026-05-08 13:21 | 41.80754 | 12.58923 | 413 ft | 0 kts | 159° |
| 2026-05-08 13:22 | 41.80749 | 12.58926 | 412 ft | 10 kts | 159° |
| 2026-05-08 13:22 | 41.80428 | 12.59145 | 413 ft | 93 kts | 152° |
| 2026-05-08 13:22 | 41.79640 | 12.59690 | 431 ft | 157 kts | 153° |
| 2026-05-08 13:22 | 41.78625 | 12.60445 | 1044 ft | 170 kts | 155° |
| 2026-05-08 13:23 | 41.77514 | 12.60964 | 1971 ft | 171 kts | 174° |
| 2026-05-08 13:23 | 41.76271 | 12.60758 | 2533 ft | 199 kts | 202° |
| 2026-05-08 13:23 | 41.75052 | 12.59698 | 3005 ft | 217 kts | 225° |
| 2026-05-08 13:23 | 41.74165 | 12.58073 | 3687 ft | 222 kts | 245° |
| 2026-05-08 13:24 | 41.73627 | 12.56111 | 4555 ft | 225 kts | 254° |
| 2026-05-08 13:24 | 41.73160 | 12.54096 | 5464 ft | 229 kts | 253° |
| 2026-05-08 13:24 | 41.72661 | 12.52030 | 6292 ft | 236 kts | 252° |
| 2026-05-08 13:24 | 41.72133 | 12.49941 | 7185 ft | 237 kts | 248° |
| 2026-05-08 13:25 | 41.71146 | 12.48129 | 7746 ft | 253 kts | 219° |
| 2026-05-08 13:25 | 41.69712 | 12.46575 | 7996 ft | 276 kts | 218° |
| 2026-05-08 13:25 | 41.68231 | 12.44951 | 7986 ft | 278 kts | 218° |
| 2026-05-08 13:25 | 41.66536 | 12.43783 | 7987 ft | 274 kts | 191° |
| 2026-05-08 13:26 | 41.64658 | 12.43798 | 8001 ft | 270 kts | 164° |
| 2026-05-08 13:26 | 41.63004 | 12.44925 | 8002 ft | 268 kts | 137° |
| 2026-05-08 13:26 | 41.61901 | 12.46903 | 7996 ft | 266 kts | 111° |
| 2026-05-08 13:26 | 41.61573 | 12.49307 | 7998 ft | 264 kts | 85° |
| 2026-05-08 13:27 | 41.62032 | 12.51671 | 8001 ft | 263 kts | 63° |
| 2026-05-08 13:27 | 41.63068 | 12.53639 | 8004 ft | 263 kts | 50° |
| 2026-05-08 13:27 | 41.64250 | 12.55511 | 7997 ft | 264 kts | 50° |
| 2026-05-08 13:27 | 41.65442 | 12.57395 | 7998 ft | 264 kts | 50° |
| 2026-05-08 13:28 | 41.66622 | 12.59280 | 7993 ft | 265 kts | 50° |
| 2026-05-08 13:28 | 41.67805 | 12.61182 | 7994 ft | 265 kts | 50° |
| 2026-05-08 13:28 | 41.68955 | 12.63119 | 7990 ft | 266 kts | 59° |
| 2026-05-08 13:28 | 41.69555 | 12.65431 | 8000 ft | 271 kts | 81° |
| 2026-05-08 13:29 | 41.69747 | 12.67956 | 7992 ft | 273 kts | 84° |
| 2026-05-08 13:29 | 41.69907 | 12.70499 | 8002 ft | 276 kts | 84° |
| 2026-05-08 13:29 | 41.70076 | 12.73060 | 7991 ft | 276 kts | 84° |
| 2026-05-08 13:29 | 41.70253 | 12.75614 | 7993 ft | 275 kts | 84° |
| 2026-05-08 13:30 | 41.70433 | 12.78157 | 7981 ft | 274 kts | 84° |
| 2026-05-08 13:30 | 41.70802 | 12.80650 | 7975 ft | 274 kts | 65° |
| 2026-05-08 13:30 | 41.71938 | 12.82667 | 8006 ft | 275 kts | 39° |
| 2026-05-08 13:30 | 41.73618 | 12.83862 | 8542 ft | 281 kts | 17° |
| 2026-05-08 13:31 | 41.75524 | 12.84465 | 9686 ft | 281 kts | 13° |
| 2026-05-08 13:31 | 41.77466 | 12.84986 | 10504 ft | 291 kts | 12° |
| 2026-05-08 13:31 | 41.79554 | 12.85534 | 10783 ft | 320 kts | 12° |
| 2026-05-08 13:31 | 41.81835 | 12.86138 | 11050 ft | 345 kts | 12° |
| 2026-05-08 13:32 | 41.84223 | 12.86778 | 11682 ft | 355 kts | 12° |
| 2026-05-08 13:32 | 41.86673 | 12.87442 | 12445 ft | 363 kts | 12° |
| 2026-05-08 13:32 | 41.89168 | 12.88124 | 13288 ft | 369 kts | 12° |
| 2026-05-08 13:32 | 41.91678 | 12.88814 | 14123 ft | 375 kts | 12° |
| 2026-05-08 13:33 | 41.94269 | 12.89531 | 14840 ft | 383 kts | 12° |
| 2026-05-08 13:33 | 41.96894 | 12.90258 | 15667 ft | 385 kts | 11° |
| 2026-05-08 13:33 | 41.99542 | 12.90992 | 16378 ft | 391 kts | 11° |
| 2026-05-08 13:33 | 42.02232 | 12.91689 | 17083 ft | 396 kts | 6° |
| 2026-05-08 13:34 | 42.04979 | 12.91538 | 17857 ft | 396 kts | 348° |
| 2026-05-08 13:34 | 42.07695 | 12.90804 | 18567 ft | 400 kts | 346° |
| 2026-05-08 13:34 | 42.10399 | 12.90018 | 19182 ft | 404 kts | 346° |
| 2026-05-08 13:34 | 42.13154 | 12.89202 | 19826 ft | 407 kts | 346° |
| 2026-05-08 13:35 | 42.15925 | 12.88388 | 20525 ft | 410 kts | 346° |
| 2026-05-08 13:35 | 42.18732 | 12.87574 | 21158 ft | 414 kts | 346° |
| 2026-05-08 13:35 | 42.21563 | 12.86762 | 21764 ft | 418 kts | 346° |
| 2026-05-08 13:35 | 42.24415 | 12.85951 | 22358 ft | 421 kts | 346° |
| 2026-05-08 13:36 | 42.27304 | 12.85135 | 22936 ft | 425 kts | 346° |
| 2026-05-08 13:36 | 42.30212 | 12.84316 | 23521 ft | 428 kts | 346° |
| 2026-05-08 13:36 | 42.33145 | 12.83491 | 24007 ft | 431 kts | 346° |
| 2026-05-08 13:36 | 42.36102 | 12.82659 | 24469 ft | 435 kts | 346° |
| 2026-05-08 13:37 | 42.39070 | 12.81823 | 24949 ft | 437 kts | 346° |
| 2026-05-08 13:37 | 42.42055 | 12.80981 | 25415 ft | 439 kts | 345° |
| 2026-05-08 13:37 | 42.45063 | 12.80131 | 25861 ft | 442 kts | 345° |
| 2026-05-08 13:37 | 42.48045 | 12.79289 | 26270 ft | 445 kts | 345° |
| 2026-05-08 13:38 | 42.51133 | 12.78415 | 26674 ft | 449 kts | 345° |
| 2026-05-08 13:38 | 42.54162 | 12.77556 | 27086 ft | 452 kts | 345° |
| 2026-05-08 13:38 | 42.57248 | 12.76681 | 27491 ft | 455 kts | 345° |
| 2026-05-08 13:38 | 42.60358 | 12.75799 | 27879 ft | 457 kts | 345° |
| 2026-05-08 13:39 | 42.63489 | 12.74909 | 28258 ft | 460 kts | 345° |
| 2026-05-08 13:39 | 42.66635 | 12.74014 | 28632 ft | 463 kts | 345° |
| 2026-05-08 13:39 | 42.69804 | 12.73111 | 28962 ft | 467 kts | 345° |
| 2026-05-08 13:39 | 42.72993 | 12.72201 | 29305 ft | 470 kts | 345° |
| 2026-05-08 13:40 | 42.76182 | 12.71291 | 29654 ft | 473 kts | 345° |
| 2026-05-08 13:40 | 42.79415 | 12.70368 | 30012 ft | 476 kts | 345° |
| 2026-05-08 13:40 | 42.82667 | 12.69440 | 30348 ft | 477 kts | 345° |
| 2026-05-08 13:40 | 42.85896 | 12.68518 | 30939 ft | 472 kts | 344° |
| 2026-05-08 13:41 | 42.89083 | 12.67609 | 31717 ft | 463 kts | 344° |
| 2026-05-08 13:41 | 42.92212 | 12.66716 | 32472 ft | 454 kts | 343° |
| 2026-05-08 13:41 | 42.95283 | 12.65838 | 33099 ft | 449 kts | 343° |
| 2026-05-08 13:41 | 42.98300 | 12.64971 | 33561 ft | 447 kts | 343° |
| 2026-05-08 13:42 | 43.01338 | 12.64095 | 33977 ft | 446 kts | 343° |
| 2026-05-08 13:42 | 43.04383 | 12.63216 | 34346 ft | 445 kts | 343° |
| 2026-05-08 13:42 | 43.07414 | 12.62339 | 34619 ft | 446 kts | 343° |
| 2026-05-08 13:42 | 43.10468 | 12.61455 | 34862 ft | 449 kts | 343° |
| 2026-05-08 13:43 | 43.13527 | 12.60569 | 35138 ft | 449 kts | 343° |
| 2026-05-08 13:43 | 43.16586 | 12.59685 | 35456 ft | 449 kts | 343° |
| 2026-05-08 13:43 | 43.19636 | 12.58802 | 35757 ft | 449 kts | 343° |
| 2026-05-08 13:43 | 43.22694 | 12.57916 | 36016 ft | 449 kts | 343° |
| 2026-05-08 13:44 | 43.25754 | 12.57029 | 36288 ft | 450 kts | 343° |
| 2026-05-08 13:44 | 43.28828 | 12.56136 | 36565 ft | 451 kts | 343° |
| 2026-05-08 13:44 | 43.31896 | 12.55245 | 36850 ft | 451 kts | 343° |
| 2026-05-08 13:44 | 43.34933 | 12.54361 | 37137 ft | 451 kts | 343° |
| 2026-05-08 13:45 | 43.38003 | 12.53467 | 37436 ft | 451 kts | 343° |
| 2026-05-08 13:45 | 43.41072 | 12.52573 | 37739 ft | 451 kts | 343° |
| 2026-05-08 13:45 | 43.44150 | 12.51675 | 38024 ft | 451 kts | 343° |
| 2026-05-08 13:45 | 43.47236 | 12.50772 | 37999 ft | 455 kts | 343° |
| 2026-05-08 13:46 | 43.53434 | 12.48957 | 38023 ft | 454 kts | 343° |
| 2026-05-08 13:46 | 43.59539 | 12.47171 | 38026 ft | 449 kts | 343° |
| 2026-05-08 13:47 | 43.65644 | 12.45378 | 38041 ft | 448 kts | 343° |
| 2026-05-08 13:47 | 43.71747 | 12.43579 | 38043 ft | 448 kts | 343° |
| 2026-05-08 13:48 | 43.77847 | 12.41779 | 38045 ft | 449 kts | 343° |
| 2026-05-08 13:48 | 43.83964 | 12.39969 | 38057 ft | 449 kts | 343° |
| 2026-05-08 13:49 | 43.90053 | 12.38164 | 38059 ft | 451 kts | 343° |
| 2026-05-08 13:49 | 43.96215 | 12.36334 | 38051 ft | 453 kts | 343° |
| 2026-05-08 13:50 | 44.02385 | 12.34498 | 38047 ft | 454 kts | 343° |
| 2026-05-08 13:50 | 44.08560 | 12.32657 | 38087 ft | 456 kts | 343° |
| 2026-05-08 13:51 | 44.14773 | 12.30801 | 38078 ft | 457 kts | 343° |
| 2026-05-08 13:51 | 44.20991 | 12.28939 | 38085 ft | 457 kts | 343° |
| 2026-05-08 13:52 | 44.27227 | 12.27068 | 38081 ft | 458 kts | 343° |
| 2026-05-08 13:52 | 44.33416 | 12.25206 | 38075 ft | 458 kts | 343° |
| 2026-05-08 13:53 | 44.39656 | 12.23325 | 38071 ft | 458 kts | 343° |
| 2026-05-08 13:53 | 44.45892 | 12.21442 | 38068 ft | 458 kts | 343° |
| 2026-05-08 13:54 | 44.52132 | 12.19553 | 38063 ft | 458 kts | 343° |
| 2026-05-08 13:54 | 44.58370 | 12.17660 | 38064 ft | 458 kts | 343° |
| 2026-05-08 13:55 | 44.64571 | 12.15775 | 38065 ft | 458 kts | 343° |
| 2026-05-08 13:56 | 44.73911 | 12.12926 | 38078 ft | 461 kts | 343° |
| 2026-05-08 13:56 | 44.77057 | 12.11964 | 38296 ft | 462 kts | 343° |
| 2026-05-08 13:56 | 44.80193 | 12.11005 | 38707 ft | 459 kts | 343° |
| 2026-05-08 13:56 | 44.83297 | 12.10057 | 39042 ft | 455 kts | 343° |
| 2026-05-08 13:57 | 44.86395 | 12.09108 | 39246 ft | 456 kts | 343° |
| 2026-05-08 13:57 | 44.89502 | 12.08154 | 39389 ft | 457 kts | 343° |
| 2026-05-08 13:57 | 44.92614 | 12.07196 | 39536 ft | 459 kts | 343° |
| 2026-05-08 13:57 | 44.95748 | 12.06231 | 39723 ft | 459 kts | 343° |
| 2026-05-08 13:58 | 44.98873 | 12.05269 | 39942 ft | 458 kts | 343° |
| 2026-05-08 13:58 | 45.01989 | 12.04309 | 40046 ft | 459 kts | 343° |
| 2026-05-08 13:58 | 45.05115 | 12.03343 | 40046 ft | 461 kts | 343° |
| 2026-05-08 13:59 | 45.11356 | 12.01413 | 40056 ft | 461 kts | 343° |
| 2026-05-08 13:59 | 45.17626 | 11.99471 | 40053 ft | 460 kts | 343° |
| 2026-05-08 14:00 | 45.22828 | 11.97856 | 40055 ft | 460 kts | 343° |
| 2026-05-08 14:00 | 45.30149 | 11.95578 | 40051 ft | 460 kts | 343° |
| 2026-05-08 14:01 | 45.35346 | 11.93957 | 40053 ft | 460 kts | 343° |
| 2026-05-08 14:01 | 45.42613 | 11.91685 | 40055 ft | 460 kts | 343° |
| 2026-05-08 14:02 | 45.48865 | 11.89725 | 40051 ft | 460 kts | 343° |
| 2026-05-08 14:02 | 45.54069 | 11.88091 | 40051 ft | 460 kts | 343° |
| 2026-05-08 14:03 | 45.60321 | 11.86124 | 40047 ft | 460 kts | 343° |
| 2026-05-08 14:03 | 45.66575 | 11.84151 | 40043 ft | 461 kts | 343° |
| 2026-05-08 14:04 | 45.72850 | 11.82167 | 40054 ft | 461 kts | 343° |
| 2026-05-08 14:04 | 45.79122 | 11.80179 | 40057 ft | 462 kts | 343° |
| 2026-05-08 14:05 | 45.85365 | 11.78196 | 40064 ft | 462 kts | 343° |
| 2026-05-08 14:05 | 45.91657 | 11.76193 | 40067 ft | 463 kts | 343° |
| 2026-05-08 14:06 | 45.97955 | 11.74183 | 40065 ft | 464 kts | 343° |
| 2026-05-08 14:06 | 46.04260 | 11.72167 | 40069 ft | 463 kts | 343° |
| 2026-05-08 14:07 | 46.10505 | 11.69903 | 40058 ft | 460 kts | 336° |
| 2026-05-08 14:07 | 46.16106 | 11.65771 | 40074 ft | 453 kts | 326° |
| 2026-05-08 14:08 | 46.21531 | 11.61139 | 40045 ft | 453 kts | 326° |
| 2026-05-08 14:08 | 46.26960 | 11.56532 | 40022 ft | 453 kts | 326° |
| 2026-05-08 14:09 | 46.32434 | 11.51935 | 40001 ft | 454 kts | 326° |
| 2026-05-08 14:09 | 46.37887 | 11.47366 | 39980 ft | 455 kts | 326° |
| 2026-05-08 14:10 | 46.43379 | 11.42758 | 39964 ft | 455 kts | 326° |
| 2026-05-08 14:10 | 46.48870 | 11.38136 | 39973 ft | 456 kts | 326° |
| 2026-05-08 14:11 | 46.54354 | 11.33510 | 39966 ft | 456 kts | 326° |
| 2026-05-08 14:11 | 46.59851 | 11.28860 | 39983 ft | 456 kts | 326° |
| 2026-05-08 14:12 | 46.65334 | 11.24210 | 40001 ft | 456 kts | 326° |
| 2026-05-08 14:12 | 46.70779 | 11.19583 | 40020 ft | 456 kts | 326° |
| 2026-05-08 14:13 | 46.76253 | 11.14919 | 40039 ft | 456 kts | 326° |
| 2026-05-08 14:13 | 46.81721 | 11.10250 | 40045 ft | 455 kts | 326° |
| 2026-05-08 14:14 | 46.87173 | 11.05596 | 40048 ft | 452 kts | 327° |
| 2026-05-08 14:14 | 46.92707 | 11.01154 | 40037 ft | 453 kts | 328° |
| 2026-05-08 14:15 | 46.98225 | 10.96826 | 40033 ft | 452 kts | 328° |
| 2026-05-08 14:15 | 47.03767 | 10.92441 | 40043 ft | 451 kts | 328° |
| 2026-05-08 14:16 | 47.09277 | 10.88041 | 40031 ft | 450 kts | 328° |
| 2026-05-08 14:16 | 47.14788 | 10.83619 | 40043 ft | 453 kts | 327° |
| 2026-05-08 14:17 | 47.20007 | 10.79421 | 40060 ft | 458 kts | 328° |
| 2026-05-08 14:17 | 47.25708 | 10.74828 | 40049 ft | 463 kts | 328° |
| 2026-05-08 14:18 | 47.31367 | 10.70259 | 40065 ft | 462 kts | 328° |
| 2026-05-08 14:18 | 47.36947 | 10.65748 | 40039 ft | 453 kts | 328° |
| 2026-05-08 14:19 | 47.42412 | 10.61310 | 40063 ft | 450 kts | 327° |
| 2026-05-08 14:19 | 47.47903 | 10.56841 | 40060 ft | 449 kts | 327° |
| 2026-05-08 14:20 | 47.53385 | 10.52370 | 40069 ft | 450 kts | 327° |
| 2026-05-08 14:20 | 47.58834 | 10.47915 | 40057 ft | 450 kts | 327° |
| 2026-05-08 14:21 | 47.64320 | 10.43420 | 40060 ft | 451 kts | 327° |
| 2026-05-08 14:21 | 47.69837 | 10.38888 | 40058 ft | 453 kts | 327° |
| 2026-05-08 14:22 | 47.75333 | 10.34612 | 40045 ft | 457 kts | 335° |
| 2026-05-08 14:22 | 47.81432 | 10.31732 | 40049 ft | 462 kts | 340° |
| 2026-05-08 14:23 | 47.87639 | 10.29087 | 40044 ft | 463 kts | 340° |
| 2026-05-08 14:23 | 47.93780 | 10.26417 | 40056 ft | 463 kts | 340° |
| 2026-05-08 14:24 | 47.99966 | 10.23663 | 40046 ft | 463 kts | 340° |
| 2026-05-08 14:24 | 48.06138 | 10.20889 | 40049 ft | 463 kts | 340° |
| 2026-05-08 14:25 | 48.12315 | 10.18104 | 40045 ft | 463 kts | 340° |
| 2026-05-08 14:25 | 48.18487 | 10.15317 | 40048 ft | 462 kts | 340° |
| 2026-05-08 14:26 | 48.24615 | 10.12544 | 40049 ft | 462 kts | 340° |
| 2026-05-08 14:26 | 48.30769 | 10.09752 | 40054 ft | 462 kts | 340° |
| 2026-05-08 14:27 | 48.36924 | 10.06953 | 40052 ft | 462 kts | 340° |
| 2026-05-08 14:27 | 48.43031 | 10.04168 | 40054 ft | 461 kts | 340° |
| 2026-05-08 14:28 | 48.49178 | 10.01358 | 40054 ft | 461 kts | 340° |
| 2026-05-08 14:28 | 48.55313 | 9.98547 | 40059 ft | 460 kts | 340° |
| 2026-05-08 14:29 | 48.61448 | 9.95728 | 40056 ft | 460 kts | 340° |
| 2026-05-08 14:29 | 48.67577 | 9.92905 | 40058 ft | 460 kts | 340° |
| 2026-05-08 14:30 | 48.73666 | 9.90077 | 40059 ft | 460 kts | 339° |
| 2026-05-08 14:30 | 48.79696 | 9.86877 | 40066 ft | 459 kts | 337° |
| 2026-05-08 14:31 | 48.85690 | 9.83535 | 40067 ft | 459 kts | 337° |
| 2026-05-08 14:31 | 48.91699 | 9.80218 | 40074 ft | 459 kts | 337° |
| 2026-05-08 14:32 | 49.00688 | 9.75305 | 40077 ft | 459 kts | 337° |
| 2026-05-08 14:32 | 49.06703 | 9.72017 | 40079 ft | 459 kts | 337° |
| 2026-05-08 14:33 | 49.12720 | 9.68717 | 40076 ft | 459 kts | 337° |
| 2026-05-08 14:33 | 49.18727 | 9.65413 | 40079 ft | 459 kts | 337° |
| 2026-05-08 14:34 | 49.24738 | 9.62098 | 40075 ft | 459 kts | 337° |
| 2026-05-08 14:34 | 49.30754 | 9.58771 | 40074 ft | 459 kts | 337° |
| 2026-05-08 14:35 | 49.36763 | 9.55439 | 40086 ft | 459 kts | 337° |
| 2026-05-08 14:35 | 49.42749 | 9.52113 | 40087 ft | 459 kts | 337° |
| 2026-05-08 14:36 | 49.48768 | 9.48758 | 40084 ft | 459 kts | 337° |
| 2026-05-08 14:36 | 49.54781 | 9.45398 | 40085 ft | 460 kts | 337° |
| 2026-05-08 14:37 | 49.60849 | 9.42458 | 40080 ft | 463 kts | 347° |
| 2026-05-08 14:37 | 49.67300 | 9.42085 | 40096 ft | 468 kts | 3° |
| 2026-05-08 14:38 | 49.73786 | 9.43211 | 40097 ft | 469 kts | 4° |
| 2026-05-08 14:38 | 49.80279 | 9.44369 | 40096 ft | 468 kts | 4° |
| 2026-05-08 14:39 | 49.86716 | 9.45425 | 40101 ft | 468 kts | 3° |
| 2026-05-08 14:39 | 49.93187 | 9.46459 | 40097 ft | 468 kts | 3° |
| 2026-05-08 14:40 | 49.99671 | 9.47502 | 40108 ft | 467 kts | 3° |
| 2026-05-08 14:40 | 50.06089 | 9.47267 | 40115 ft | 458 kts | 341° |
| 2026-05-08 14:41 | 50.09045 | 9.45498 | 40101 ft | 453 kts | 328° |
| 2026-05-08 14:41 | 50.11641 | 9.42757 | 40111 ft | 449 kts | 319° |
| 2026-05-08 14:41 | 50.16436 | 9.36533 | 40109 ft | 449 kts | 317° |
| 2026-05-08 14:42 | 50.21217 | 9.30302 | 40100 ft | 450 kts | 318° |
| 2026-05-08 14:42 | 50.26071 | 9.24101 | 40099 ft | 451 kts | 318° |
| 2026-05-08 14:43 | 50.30938 | 9.17909 | 40101 ft | 451 kts | 318° |
| 2026-05-08 14:43 | 50.35803 | 9.11694 | 40114 ft | 452 kts | 318° |
| 2026-05-08 14:44 | 50.40675 | 9.05455 | 40103 ft | 452 kts | 318° |
| 2026-05-08 14:44 | 50.45546 | 8.99200 | 40099 ft | 452 kts | 318° |
| 2026-05-08 14:45 | 50.50416 | 8.92932 | 40115 ft | 452 kts | 318° |
| 2026-05-08 14:45 | 50.55278 | 8.86755 | 40114 ft | 453 kts | 320° |
| 2026-05-08 14:46 | 50.60308 | 8.80759 | 40121 ft | 453 kts | 321° |
| 2026-05-08 14:46 | 50.65341 | 8.74789 | 40119 ft | 452 kts | 320° |
| 2026-05-08 14:47 | 50.70353 | 8.68774 | 40115 ft | 452 kts | 320° |
| 2026-05-08 14:47 | 50.75319 | 8.62770 | 39838 ft | 456 kts | 320° |
| 2026-05-08 14:48 | 50.77845 | 8.59706 | 39306 ft | 457 kts | 320° |
| 2026-05-08 14:48 | 50.80355 | 8.56659 | 38679 ft | 455 kts | 320° |
| 2026-05-08 14:48 | 50.82867 | 8.53608 | 37895 ft | 454 kts | 320° |
| 2026-05-08 14:48 | 50.85370 | 8.50562 | 37204 ft | 453 kts | 320° |
| 2026-05-08 14:49 | 50.87856 | 8.47534 | 36502 ft | 451 kts | 320° |
| 2026-05-08 14:49 | 50.90343 | 8.44499 | 35799 ft | 450 kts | 320° |
| 2026-05-08 14:49 | 50.92828 | 8.41462 | 35028 ft | 452 kts | 319° |
| 2026-05-08 14:49 | 50.95320 | 8.38411 | 34245 ft | 453 kts | 319° |
| 2026-05-08 14:50 | 50.96988 | 8.36369 | 33608 ft | 454 kts | 319° |
| 2026-05-08 14:50 | 50.99491 | 8.33299 | 32696 ft | 455 kts | 320° |
| 2026-05-08 14:50 | 51.02017 | 8.30278 | 31790 ft | 456 kts | 323° |
| 2026-05-08 14:50 | 51.04766 | 8.27663 | 30636 ft | 463 kts | 330° |
| 2026-05-08 14:51 | 51.07578 | 8.25295 | 29862 ft | 459 kts | 330° |
| 2026-05-08 14:51 | 51.10374 | 8.22887 | 29063 ft | 453 kts | 329° |
| 2026-05-08 14:51 | 51.13103 | 8.20484 | 28357 ft | 446 kts | 329° |
| 2026-05-08 14:51 | 51.15798 | 8.18081 | 27677 ft | 439 kts | 328° |
| 2026-05-08 14:52 | 51.18442 | 8.15712 | 27007 ft | 433 kts | 328° |
| 2026-05-08 14:52 | 51.23633 | 8.11052 | 25674 ft | 423 kts | 328° |
| 2026-05-08 14:52 | 51.26186 | 8.08760 | 25021 ft | 418 kts | 328° |
| 2026-05-08 14:53 | 51.28713 | 8.06490 | 24392 ft | 414 kts | 328° |
| 2026-05-08 14:53 | 51.31216 | 8.04240 | 23754 ft | 411 kts | 328° |
| 2026-05-08 14:53 | 51.33667 | 8.02035 | 23017 ft | 408 kts | 328° |
| 2026-05-08 14:53 | 51.36137 | 7.99810 | 22340 ft | 403 kts | 328° |
| 2026-05-08 14:54 | 51.38568 | 7.97617 | 21696 ft | 398 kts | 329° |
| 2026-05-08 14:54 | 51.40971 | 7.95448 | 21066 ft | 394 kts | 329° |
| 2026-05-08 14:54 | 51.43327 | 7.93258 | 20415 ft | 389 kts | 323° |
| 2026-05-08 14:54 | 51.45230 | 7.90251 | 19795 ft | 382 kts | 303° |
| 2026-05-08 14:55 | 51.46367 | 7.86514 | 19205 ft | 376 kts | 285° |
| 2026-05-08 14:55 | 51.46792 | 7.82416 | 18604 ft | 372 kts | 271° |
| 2026-05-08 14:55 | 51.46495 | 7.78326 | 17943 ft | 369 kts | 256° |
| 2026-05-08 14:55 | 51.45802 | 7.74382 | 17296 ft | 366 kts | 253° |
| 2026-05-08 14:56 | 51.45062 | 7.70488 | 16682 ft | 362 kts | 253° |
| 2026-05-08 14:56 | 51.44333 | 7.66634 | 16087 ft | 359 kts | 253° |
| 2026-05-08 14:56 | 51.43629 | 7.62808 | 15485 ft | 357 kts | 254° |
| 2026-05-08 14:56 | 51.42940 | 7.59007 | 14906 ft | 354 kts | 254° |
| 2026-05-08 14:57 | 51.42259 | 7.55231 | 14323 ft | 351 kts | 255° |
| 2026-05-08 14:57 | 51.41898 | 7.51399 | 13976 ft | 344 kts | 269° |
| 2026-05-08 14:57 | 51.41924 | 7.47594 | 13698 ft | 345 kts | 271° |
| 2026-05-08 14:57 | 51.41981 | 7.43681 | 13423 ft | 354 kts | 271° |
| 2026-05-08 14:58 | 51.42034 | 7.39714 | 13137 ft | 357 kts | 270° |
| 2026-05-08 14:58 | 51.42073 | 7.35802 | 12865 ft | 354 kts | 270° |
| 2026-05-08 14:58 | 51.42101 | 7.31866 | 12594 ft | 352 kts | 270° |
| 2026-05-08 14:58 | 51.42123 | 7.27956 | 12333 ft | 351 kts | 270° |
| 2026-05-08 14:59 | 51.42140 | 7.24060 | 12078 ft | 350 kts | 270° |
| 2026-05-08 14:59 | 51.41389 | 7.16469 | 11548 ft | 349 kts | 243° |
| 2026-05-08 14:59 | 51.39964 | 7.13343 | 11326 ft | 346 kts | 227° |
| 2026-05-08 15:00 | 51.38319 | 7.10598 | 11042 ft | 336 kts | 226° |
| 2026-05-08 15:00 | 51.36698 | 7.07987 | 10791 ft | 324 kts | 225° |
| 2026-05-08 15:00 | 51.35146 | 7.05493 | 10554 ft | 315 kts | 225° |
| 2026-05-08 15:00 | 51.33630 | 7.03039 | 10332 ft | 306 kts | 226° |
| 2026-05-08 15:01 | 51.32140 | 7.00613 | 10100 ft | 298 kts | 226° |
| 2026-05-08 15:01 | 51.30746 | 6.98332 | 10083 ft | 284 kts | 226° |
| 2026-05-08 15:01 | 51.29392 | 6.96112 | 9791 ft | 279 kts | 226° |
| 2026-05-08 15:01 | 51.28039 | 6.93891 | 9489 ft | 276 kts | 226° |
| 2026-05-08 15:02 | 51.26714 | 6.91714 | 9262 ft | 271 kts | 226° |
| 2026-05-08 15:02 | 51.25411 | 6.89570 | 9036 ft | 266 kts | 226° |
| 2026-05-08 15:02 | 51.24122 | 6.87459 | 8839 ft | 264 kts | 226° |
| 2026-05-08 15:02 | 51.22855 | 6.85386 | 8639 ft | 258 kts | 226° |
| 2026-05-08 15:03 | 51.21613 | 6.83355 | 8452 ft | 255 kts | 226° |
| 2026-05-08 15:03 | 51.20387 | 6.81322 | 8247 ft | 252 kts | 229° |
| 2026-05-08 15:03 | 51.19322 | 6.79173 | 8079 ft | 248 kts | 233° |
| 2026-05-08 15:03 | 51.18286 | 6.76952 | 7886 ft | 245 kts | 233° |
| 2026-05-08 15:04 | 51.17275 | 6.74798 | 7704 ft | 241 kts | 233° |
| 2026-05-08 15:04 | 51.16272 | 6.72673 | 7529 ft | 238 kts | 233° |
| 2026-05-08 15:04 | 51.15292 | 6.70610 | 7361 ft | 235 kts | 232° |
| 2026-05-08 15:04 | 51.14303 | 6.68540 | 7182 ft | 233 kts | 232° |
| 2026-05-08 15:05 | 51.13327 | 6.66500 | 7014 ft | 230 kts | 232° |
| 2026-05-08 15:05 | 51.12361 | 6.64481 | 6850 ft | 228 kts | 232° |
| 2026-05-08 15:05 | 51.11399 | 6.62477 | 6677 ft | 227 kts | 232° |
| 2026-05-08 15:05 | 51.10443 | 6.60487 | 6495 ft | 225 kts | 232° |
| 2026-05-08 15:06 | 51.09498 | 6.58519 | 6322 ft | 223 kts | 232° |
| 2026-05-08 15:06 | 51.08572 | 6.56593 | 6152 ft | 220 kts | 232° |
| 2026-05-08 15:06 | 51.07644 | 6.54665 | 5985 ft | 219 kts | 232° |
| 2026-05-08 15:06 | 51.06715 | 6.52738 | 5924 ft | 212 kts | 232° |
| 2026-05-08 15:07 | 51.05836 | 6.50915 | 5853 ft | 212 kts | 232° |
| 2026-05-08 15:07 | 51.04927 | 6.49033 | 5677 ft | 217 kts | 232° |
| 2026-05-08 15:07 | 51.04082 | 6.47027 | 5408 ft | 220 kts | 250° |
| 2026-05-08 15:07 | 51.03979 | 6.44658 | 5235 ft | 217 kts | 285° |
| 2026-05-08 15:08 | 51.04728 | 6.42640 | 5065 ft | 214 kts | 319° |
| 2026-05-08 15:08 | 51.05555 | 6.41808 | 4964 ft | 212 kts | 338° |
| 2026-05-08 15:08 | 51.07449 | 6.41037 | 4761 ft | 209 kts | 349° |
| 2026-05-08 15:08 | 51.08877 | 6.40597 | 4594 ft | 209 kts | 349° |
| 2026-05-08 15:09 | 51.10317 | 6.40338 | 4425 ft | 212 kts | 8° |
| 2026-05-08 15:09 | 51.11668 | 6.41332 | 4296 ft | 223 kts | 43° |
| 2026-05-08 15:09 | 51.12683 | 6.43193 | 4145 ft | 222 kts | 52° |
| 2026-05-08 15:09 | 51.13612 | 6.45162 | 3959 ft | 222 kts | 53° |
| 2026-05-08 15:10 | 51.14525 | 6.47103 | 3788 ft | 220 kts | 53° |
| 2026-05-08 15:10 | 51.15441 | 6.49021 | 3635 ft | 214 kts | 51° |
| 2026-05-08 15:10 | 51.16366 | 6.50819 | 3489 ft | 206 kts | 51° |
| 2026-05-08 15:10 | 51.17240 | 6.52585 | 3314 ft | 199 kts | 52° |
| 2026-05-08 15:11 | 51.18062 | 6.54304 | 3172 ft | 191 kts | 52° |
| 2026-05-08 15:11 | 51.18840 | 6.55951 | 3071 ft | 181 kts | 52° |
| 2026-05-08 15:11 | 51.19576 | 6.57509 | 2916 ft | 172 kts | 52° |
| 2026-05-08 15:11 | 51.20270 | 6.58974 | 2714 ft | 163 kts | 52° |
| 2026-05-08 15:12 | 51.20942 | 6.60391 | 2508 ft | 154 kts | 52° |
| 2026-05-08 15:12 | 51.21567 | 6.61714 | 2325 ft | 143 kts | 52° |
| 2026-05-08 15:12 | 51.22153 | 6.62948 | 2120 ft | 139 kts | 52° |
| 2026-05-08 15:12 | 51.22730 | 6.64166 | 1921 ft | 137 kts | 52° |
| 2026-05-08 15:13 | 51.23305 | 6.65386 | 1748 ft | 138 kts | 52° |
| 2026-05-08 15:13 | 51.23885 | 6.66603 | 1547 ft | 136 kts | 52° |
| 2026-05-08 15:13 | 51.24455 | 6.67808 | 1371 ft | 136 kts | 52° |
| 2026-05-08 15:13 | 51.25030 | 6.69022 | 1177 ft | 138 kts | 52° |
| 2026-05-08 15:14 | 51.25602 | 6.70228 | 981 ft | 135 kts | 52° |
| 2026-05-08 15:14 | 51.26162 | 6.71409 | 798 ft | 135 kts | 52° |
| 2026-05-08 15:14 | 51.26732 | 6.72608 | 621 ft | 133 kts | 53° |
| 2026-05-08 15:14 | 51.27284 | 6.73777 | 421 ft | 134 kts | 53° |
| 2026-05-08 15:15 | 51.27854 | 6.74955 | 245 ft | 135 kts | 53° |
| 2026-05-08 15:15 | 51.28414 | 6.76153 | 125 ft | 128 kts | 53° |
| 2026-05-08 15:15 | 51.28879 | 6.77124 | 123 ft | 88 kts | 53° |
| 2026-05-08 15:15 | 51.29156 | 6.77709 | 128 ft | 49 kts | 53° |
| 2026-05-08 15:16 | 51.29283 | 6.77978 | 136 ft | 18 kts | 55° |
| 2026-05-08 15:16 | 51.29298 | 6.78083 | 138 ft | 9 kts | 106° |
| 2026-05-08 15:16 | 51.29264 | 6.78178 | 136 ft | 12 kts | 133° |
| 2026-05-08 15:16 | 51.29182 | 6.78203 | 135 ft | 13 kts | 202° |
| 2026-05-08 15:17 | 51.29112 | 6.78083 | 131 ft | 16 kts | 232° |
| 2026-05-08 15:17 | 51.29036 | 6.77933 | 127 ft | 18 kts | 231° |
| 2026-05-08 15:17 | 51.28964 | 6.77780 | 126 ft | 17 kts | 232° |
| 2026-05-08 15:17 | 51.28896 | 6.77626 | 128 ft | 17 kts | 231° |
| 2026-05-08 15:18 | 51.28825 | 6.77481 | 127 ft | 16 kts | 232° |
| 2026-05-08 15:18 | 51.28758 | 6.77340 | 129 ft | 16 kts | 232° |
| 2026-05-08 15:18 | 51.28693 | 6.77205 | 126 ft | 15 kts | 232° |
| 2026-05-08 15:18 | 51.28630 | 6.77071 | 124 ft | 15 kts | 232° |
| 2026-05-08 15:19 | 51.28566 | 6.76938 | 128 ft | 16 kts | 232° |
| 2026-05-08 15:19 | 51.28496 | 6.76795 | 126 ft | 17 kts | 233° |
| 2026-05-08 15:19 | 51.28423 | 6.76636 | 121 ft | 18 kts | 232° |
| 2026-05-08 15:19 | 51.28347 | 6.76478 | 122 ft | 18 kts | 232° |
| 2026-05-08 15:20 | 51.28273 | 6.76325 | 123 ft | 17 kts | 232° |
| 2026-05-08 15:20 | 51.28204 | 6.76177 | 128 ft | 16 kts | 233° |
| 2026-05-08 15:20 | 51.28136 | 6.76033 | 127 ft | 16 kts | 232° |
| 2026-05-08 15:20 | 51.28070 | 6.75897 | 126 ft | 15 kts | 232° |
| 2026-05-08 15:21 | 51.28008 | 6.75764 | 127 ft | 15 kts | 233° |
| 2026-05-08 15:21 | 51.27944 | 6.75633 | 128 ft | 15 kts | 233° |
| 2026-05-08 15:21 | 51.27878 | 6.75495 | 127 ft | 16 kts | 232° |
| 2026-05-08 15:21 | 51.27830 | 6.75395 | 122 ft | 1 kts | 232° |
| 2026-05-08 15:22 | 51.27817 | 6.75371 | 122 ft | 4 kts | 216° |
| 2026-05-08 15:22 | 51.27790 | 6.75387 | 125 ft | 4 kts | 152° |
| 2026-05-08 15:22 | 51.27763 | 6.75411 | 123 ft | 5 kts | 151° |
| 2026-05-08 15:22 | 51.27731 | 6.75438 | 124 ft | 5 kts | 153° |
| 2026-05-08 15:23 | 51.27697 | 6.75466 | 124 ft | 5 kts | 152° |
| 2026-05-08 15:23 | 51.27663 | 6.75493 | 125 ft | 5 kts | 153° |
| 2026-05-08 15:23 | 51.27630 | 6.75520 | 126 ft | 5 kts | 156° |
| 2026-05-08 15:23 | 51.27594 | 6.75538 | 124 ft | 6 kts | 159° |
| 2026-05-08 15:24 | 51.27560 | 6.75564 | 125 ft | 5 kts | 154° |
| 2026-05-08 15:24 | 51.27527 | 6.75590 | 128 ft | 5 kts | 153° |
| 2026-05-08 15:24 | 51.27494 | 6.75617 | 125 ft | 5 kts | 152° |
| 2026-05-08 15:24 | 51.27463 | 6.75643 | 128 ft | 0 kts | 152° |
| 2026-05-08 15:25 | 51.27452 | 6.75651 | 125 ft | 4 kts | 163° |
| 2026-05-08 15:25 | 51.27434 | 6.75613 | 126 ft | 6 kts | 249° |
| 2026-05-08 15:25 | 51.27421 | 6.75566 | 123 ft | 1 kts | 242° |
| 2026-05-08 15:25 | 51.27419 | 6.75561 | 123 ft | 0 kts | 242° |